Aérodrome :
LOGIN :

S'inscrire | Disclaimer

   EN    FR    IT 

 










Légende :    VFR   VFR Marginal   IFR   IFR Intensif   IFR Très Intensif
Visi : 
Plafond : 
>= 8 km
>= 3000ft
5 à 8 km
1000 à 3000 ft
1500m à 5 km
500 à 1000 ft
800 à 1500m
200 à 500 ft
< 800m
< 200 ft
Symboles :   Orages  Brouillard  Fortes neiges  Fortes précipitations  Vent > 20 kt
SIGMETs :   Divers  Orages  Givrage  Turbulence  Onde Orograph.  Cendres Volcan.






- Altitude de l'aérodrome : 675 ft
- Code IATA : RZE


EPRZ - Rzeszow-Jasionka

DERNIER METAR :
  • 130700Z 10013KT 8000 OVC005 02/02 Q0997

METARs EXPIRÉS :
  • 130630Z 09012KT 8000 OVC005 02/02 Q0997
  • 130600Z 10013KT 8000 OVC005 03/02 Q0997
  • 130530Z 11015KT 7000 OVC005 03/02 Q0998
  • 130500Z 11013KT 8000 OVC007 03/02 Q0998
  • 130430Z 11013KT 8000 OVC007 03/02 Q0998

TAF AMD TAF EPRZ
Valide du 13 à 06h jusqu'au 14 à 06h UTC


130659Z 1306/1406 10012KT 9999 BKN005
BECMG 1307/1309 18014KT BKN017
BECMG 1321/1324 12006KT
PROB30 1402/1406 1200 BR BKN006



MET'MAP, la Météo Aéronautique d'un coup d'oeil ! - Copyright ORBIFLY Décembre 2007 - Disclaimer

ORBIFLY MET'MAP TEAM :

Programmation & Développement : Alexandra Zaïnal
Sur une idée originale de : Baudouin d'Aumeries
Assistance à la programmation : Marc-Olivier Méhu
Soutien technique & logistique : Manuel Goepfert

Contact : metmap@orbifly.com




SOURCES & CREDITS :

   NOAA